Time;durP1;ratioP1;P1;durP2;ratioP2;P2;SDS_P1;SDS_P2;PMS_P1;PMS_P2;Temp;Humidity;BMP_temperature;BMP_pressure;BME280_temperature;BME280_humidity;BME280_pressure;Samples;Min_cycle;Max_cycle;Signal;HPM_P1;HPM_P2
2022/08/06 00:01:32;;;;;;;4.28;3.00;;;;;;;19.66;54.06;97886.84;4953287;28;20740;-75
2022/08/06 00:03:57;;;;;;;3.15;2.60;;;;;;;19.69;53.58;97883.63;4965066;28;20167;-75
2022/08/06 00:06:23;;;;;;;4.05;2.50;;;;;;;19.69;54.00;97885.47;4951289;28;20184;-75
2022/08/06 00:08:48;;;;;;;3.92;2.78;;;;;;;19.68;53.82;97889.19;4949480;28;20232;-75
2022/08/06 00:11:14;;;;;;;2.85;2.25;;;;;;;19.65;53.74;97880.78;4942673;28;20321;-75
2022/08/06 00:13:39;;;;;;;3.00;2.67;;;;;;;19.69;53.81;97896.84;4960374;28;20559;-75
2022/08/06 00:16:04;;;;;;;2.90;2.60;;;;;;;19.65;53.76;97893.97;4932041;28;20188;-74
2022/08/06 00:18:30;;;;;;;3.00;2.45;;;;;;;19.60;53.84;97899.34;4913277;28;20360;-75
2022/08/06 00:20:55;;;;;;;2.72;2.53;;;;;;;19.65;53.85;97899.28;4910196;28;20210;-75
2022/08/06 00:23:20;;;;;;;4.13;2.80;;;;;;;19.64;53.69;97905.59;4910580;28;20242;-75
2022/08/06 00:25:46;;;;;;;3.83;2.55;;;;;;;19.55;53.81;97907.34;4923788;28;20200;-74
2022/08/06 00:28:11;;;;;;;3.85;2.60;;;;;;;19.53;53.58;97913.94;4919743;28;20213;-75
2022/08/06 00:30:37;;;;;;;3.63;2.60;;;;;;;19.50;53.42;97903.94;4939691;28;20399;-74
2022/08/06 00:33:02;;;;;;;2.45;2.25;;;;;;;19.34;53.48;97909.44;4952078;28;20215;-75
2022/08/06 00:35:27;;;;;;;2.65;2.45;;;;;;;19.40;53.36;97905.66;4918026;28;20626;-75
2022/08/06 00:37:53;;;;;;;2.65;2.20;;;;;;;19.35;53.45;97908.38;4938318;28;20256;-75
2022/08/06 00:40:18;;;;;;;2.92;2.20;;;;;;;19.35;53.52;97904.94;4954050;28;20240;-75
2022/08/06 00:42:43;;;;;;;2.28;2.08;;;;;;;19.36;53.55;97909.91;4938595;28;20646;-74
2022/08/06 00:45:09;;;;;;;2.20;2.00;;;;;;;19.35;53.63;97913.66;4919564;28;20298;-75
2022/08/06 00:47:34;;;;;;;2.92;1.98;;;;;;;19.27;53.58;97907.13;4954542;28;20594;-74
2022/08/06 00:50:00;;;;;;;3.47;2.20;;;;;;;19.26;53.74;97910.03;4922740;28;20342;-74
2022/08/06 00:52:25;;;;;;;4.28;2.30;;;;;;;19.25;53.96;97916.41;4933165;28;20276;-75
2022/08/06 00:54:51;;;;;;;2.53;2.30;;;;;;;19.19;54.71;97920.97;4928307;28;20189;-74
2022/08/06 00:57:16;;;;;;;2.80;2.47;;;;;;;19.11;55.37;97918.94;4929315;28;20201;-74
2022/08/06 00:59:42;;;;;;;2.80;2.60;;;;;;;19.04;55.70;97915.88;4928691;28;20121;-75
2022/08/06 01:02:07;;;;;;;3.00;2.70;;;;;;;18.97;56.26;97923.31;4947886;28;20245;-75
2022/08/06 01:04:32;;;;;;;3.78;3.00;;;;;;;18.83;56.65;97921.38;4929294;28;20287;-75
2022/08/06 01:06:58;;;;;;;3.25;2.95;;;;;;;18.79;56.77;97917.66;4911416;28;20375;-75
2022/08/06 01:09:23;;;;;;;3.35;2.70;;;;;;;18.75;56.96;97923.75;4896233;28;20193;-75
2022/08/06 01:11:49;;;;;;;3.00;2.75;;;;;;;18.74;56.58;97915.06;4929353;28;20219;-75
2022/08/06 01:14:14;;;;;;;3.08;2.45;;;;;;;18.73;56.19;97910.88;4913495;28;20251;-74
2022/08/06 01:16:48;;;;;;;3.17;2.90;;;;;;;18.62;56.53;97917.31;4896140;28;20208;-74
2022/08/06 01:19:16;;;;;;;4.07;2.72;;;;;;;18.66;56.18;97923.59;4928160;28;20639;-74
2022/08/06 01:22:06;;;;;;;2.90;2.40;;;;;;;18.52;56.51;97913.72;4947357;28;20714;-75
2022/08/06 01:24:43;;;;;;;3.97;2.67;;;;;;;18.52;56.33;97923.44;4928697;28;20284;-75
2022/08/06 01:27:23;;;;;;;4.85;2.50;;;;;;;18.47;56.16;97916.38;4927078;28;20167;-75
2022/08/06 01:29:52;;;;;;;2.80;2.30;;;;;;;18.52;55.95;97921.63;4945560;28;20255;-75
2022/08/06 01:32:25;;;;;;;2.03;1.92;;;;;;;18.45;56.38;97918.50;4928878;28;20230;-75
2022/08/06 01:34:54;;;;;;;2.92;2.33;;;;;;;18.45;56.42;97915.84;4927873;28;20282;-75
2022/08/06 01:37:50;;;;;;;3.00;2.70;;;;;;;18.34;56.49;97912.53;4927993;28;20247;-75
2022/08/06 01:40:23;;;;;;;3.60;3.00;;;;;;;18.30;56.62;97914.16;4935781;28;20213;-75
2022/08/06 01:42:49;;;;;;;2.90;2.20;;;;;;;18.35;56.62;97921.22;4931970;28;20181;-75
2022/08/06 01:45:17;;;;;;;3.05;2.75;;;;;;;18.36;56.17;97919.38;4928408;28;20735;-75
2022/08/06 01:47:47;;;;;;;4.28;2.20;;;;;;;18.38;56.01;97927.81;4928336;28;20591;-75
2022/08/06 01:50:13;;;;;;;2.30;2.10;;;;;;;18.41;55.81;97922.75;4912508;28;20170;-75
2022/08/06 01:52:41;;;;;;;2.40;2.20;;;;;;;18.33;56.08;97915.44;4910786;28;20556;-75
2022/08/06 01:55:10;;;;;;;2.60;2.38;;;;;;;18.20;56.71;97921.34;4913110;28;20185;-75
2022/08/06 01:57:36;;;;;;;3.30;2.38;;;;;;;18.24;56.67;97925.00;4911896;28;20189;-75
2022/08/06 02:00:04;;;;;;;3.28;2.47;;;;;;;18.11;57.31;97921.94;4927968;28;20658;-75
2022/08/06 02:02:30;;;;;;;4.88;2.70;;;;;;;18.06;57.58;97927.25;4892759;28;20197;-75
2022/08/06 02:04:59;;;;;;;3.63;2.55;;;;;;;18.02;57.64;97928.84;4908231;28;20201;-75
2022/08/06 02:07:28;;;;;;;3.35;2.70;;;;;;;18.03;57.71;97927.03;4928328;28;20217;-74
2022/08/06 02:09:55;;;;;;;3.08;2.78;;;;;;;18.02;57.86;97926.22;4927543;28;20593;-75
2022/08/06 02:12:23;;;;;;;4.15;3.55;;;;;;;18.05;57.67;97932.78;4928804;28;20215;-74
2022/08/06 02:14:53;;;;;;;3.80;2.28;;;;;;;18.03;57.47;97929.66;4928806;28;20224;-75
2022/08/06 02:17:21;;;;;;;2.83;2.47;;;;;;;18.01;57.77;97937.84;4911804;28;20293;-74
2022/08/06 02:19:49;;;;;;;2.95;2.45;;;;;;;18.00;57.57;97941.50;4910877;28;20371;-75
2022/08/06 02:22:15;;;;;;;2.45;2.25;;;;;;;18.03;57.69;97935.69;4928664;28;20205;-75
2022/08/06 02:24:41;;;;;;;2.70;2.50;;;;;;;18.02;57.49;97941.25;4928318;28;20227;-75
2022/08/06 02:27:07;;;;;;;4.10;2.47;;;;;;;17.98;57.27;97941.00;4926936;28;20189;-74
2022/08/06 02:29:33;;;;;;;2.53;2.30;;;;;;;17.99;57.69;97942.56;4891960;28;20206;-74
2022/08/06 02:31:59;;;;;;;1.92;1.70;;;;;;;17.96;57.71;97945.75;4909332;28;20086;-74
2022/08/06 02:34:24;;;;;;;2.72;2.50;;;;;;;17.89;57.65;97946.06;4909278;28;20593;-74
2022/08/06 02:36:58;;;;;;;2.60;2.40;;;;;;;17.75;58.06;97948.50;4895382;28;20190;-75
2022/08/06 02:39:29;;;;;;;3.05;2.83;;;;;;;17.69;58.03;97954.81;4927547;28;20417;-74
2022/08/06 02:42:06;;;;;;;3.15;2.80;;;;;;;17.60;58.06;97951.97;4928465;28;20162;-75
2022/08/06 02:44:39;;;;;;;3.58;2.60;;;;;;;17.65;58.09;97950.38;4943398;28;20139;-74
2022/08/06 02:47:10;;;;;;;3.53;2.85;;;;;;;17.67;57.90;97954.31;4944140;28;20216;-75
2022/08/06 02:49:38;;;;;;;4.28;3.08;;;;;;;17.63;58.04;97963.81;4911261;28;20212;-75
2022/08/06 02:52:10;;;;;;;3.33;2.58;;;;;;;17.55;58.24;97959.91;4928406;28;20639;-75
2022/08/06 02:54:52;;;;;;;4.00;2.80;;;;;;;17.53;58.35;97962.03;4928442;28;20182;-75
2022/08/06 02:57:23;;;;;;;4.55;2.80;;;;;;;17.53;58.23;97964.66;4926745;28;20280;-74
2022/08/06 02:59:51;;;;;;;2.88;2.67;;;;;;;17.54;58.31;97965.44;4911168;28;20581;-75
2022/08/06 03:02:17;;;;;;;3.60;3.30;;;;;;;17.48;58.68;97963.88;4912075;28;20245;-75
2022/08/06 03:04:47;;;;;;;3.58;2.85;;;;;;;17.31;59.01;97959.72;4927706;28;20750;-75
2022/08/06 03:07:13;;;;;;;3.65;2.95;;;;;;;17.35;59.13;97968.66;4926485;28;20213;-75
2022/08/06 03:09:41;;;;;;;3.40;2.60;;;;;;;17.22;59.25;97962.13;4927929;28;20205;-75
2022/08/06 03:12:08;;;;;;;4.05;2.72;;;;;;;17.16;59.35;97963.19;4895319;28;20188;-74
2022/08/06 03:14:34;;;;;;;3.90;3.33;;;;;;;17.19;59.49;97969.78;4928527;28;20159;-75
2022/08/06 03:17:00;;;;;;;4.22;2.95;;;;;;;17.21;59.46;97970.28;4928064;28;20262;-75
2022/08/06 03:19:26;;;;;;;2.75;2.53;;;;;;;17.14;59.63;97970.56;4910995;28;20265;-75
2022/08/06 03:21:52;;;;;;;3.95;2.83;;;;;;;17.17;59.55;97975.31;4911215;28;20307;-75
2022/08/06 03:24:19;;;;;;;4.63;3.00;;;;;;;17.12;59.80;97963.97;4927846;28;20240;-75
2022/08/06 03:26:45;;;;;;;3.78;2.67;;;;;;;17.14;59.52;97967.16;4927874;28;20283;-75
2022/08/06 03:29:11;;;;;;;4.15;3.05;;;;;;;17.12;59.51;97971.88;4926984;28;20281;-75
2022/08/06 03:31:36;;;;;;;3.22;2.80;;;;;;;17.11;59.67;97967.69;4911408;28;20311;-75
2022/08/06 03:34:02;;;;;;;3.03;2.70;;;;;;;17.09;59.23;97967.16;4912019;28;20236;-75
2022/08/06 03:36:28;;;;;;;3.05;2.67;;;;;;;17.04;59.44;97967.97;4911914;28;20792;-75
2022/08/06 03:39:00;;;;;;;3.38;2.80;;;;;;;16.93;59.74;97966.38;4926688;28;20182;-75
2022/08/06 03:41:25;;;;;;;3.80;2.80;;;;;;;17.07;59.35;97967.44;4895563;28;20214;-75
2022/08/06 03:43:51;;;;;;;3.80;2.55;;;;;;;17.05;59.05;97980.06;4925227;28;20628;-75
2022/08/06 03:46:21;;;;;;;3.22;2.35;;;;;;;16.92;59.23;97973.50;4944262;28;20255;-74
2022/08/06 03:48:47;;;;;;;4.20;2.35;;;;;;;16.98;59.21;97975.09;4926852;28;20247;-75
2022/08/06 03:51:16;;;;;;;2.78;2.42;;;;;;;16.89;59.38;97979.28;4929883;28;20663;-75
2022/08/06 03:53:42;;;;;;;2.70;2.20;;;;;;;16.92;59.21;97973.50;4931557;28;20260;-75
2022/08/06 03:56:10;;;;;;;3.00;2.40;;;;;;;16.88;59.13;97976.91;4915237;28;20484;-75
2022/08/06 03:58:37;;;;;;;3.22;2.20;;;;;;;16.78;59.26;97967.19;4929937;28;20206;-75
2022/08/06 04:01:06;;;;;;;3.55;2.40;;;;;;;16.84;59.14;97974.84;4930741;28;20319;-75
2022/08/06 04:03:32;;;;;;;2.78;2.15;;;;;;;16.89;59.00;97976.66;4931033;28;20225;-75
2022/08/06 04:05:58;;;;;;;3.22;2.15;;;;;;;16.89;58.80;97973.25;4931303;28;20221;-75
2022/08/06 04:08:24;;;;;;;2.55;2.35;;;;;;;16.85;59.19;97981.66;4929323;28;20720;-75
2022/08/06 04:10:50;;;;;;;4.05;2.45;;;;;;;16.84;59.28;97987.19;4931039;28;20184;-75
2022/08/06 04:13:21;;;;;;;2.55;2.35;;;;;;;16.72;59.38;97982.16;4914888;28;20201;-75
2022/08/06 04:15:47;;;;;;;3.03;2.20;;;;;;;16.78;59.30;97993.50;4930001;28;20171;-75
2022/08/06 04:18:17;;;;;;;4.35;2.28;;;;;;;16.63;59.67;97992.41;4929283;28;20209;-75
2022/08/06 04:20:54;;;;;;;3.35;2.60;;;;;;;16.50;59.77;97998.19;4913659;28;20221;-75
2022/08/06 04:23:20;;;;;;;5.32;2.60;;;;;;;16.62;59.63;98000.56;4931060;28;20247;-75
2022/08/06 04:25:52;;;;;;;2.53;2.33;;;;;;;16.52;59.67;97990.06;4914586;28;20295;-75
2022/08/06 04:28:19;;;;;;;3.67;2.58;;;;;;;16.52;59.81;97992.69;4897707;28;20193;-75
2022/08/06 04:30:45;;;;;;;2.20;2.00;;;;;;;16.54;59.46;98009.78;4914240;28;20366;-75
2022/08/06 04:33:13;;;;;;;3.45;2.40;;;;;;;16.42;60.00;97998.75;4898656;28;20270;-75
2022/08/06 04:35:40;;;;;;;3.60;2.25;;;;;;;16.48;59.83;97997.69;4930866;28;20279;-74
2022/08/06 04:38:06;;;;;;;1.95;1.85;;;;;;;16.53;59.72;98000.31;4927104;28;20219;-75
2022/08/06 04:40:32;;;;;;;2.92;1.80;;;;;;;16.57;59.64;98004.00;4927089;28;20155;-75
2022/08/06 04:42:57;;;;;;;4.65;2.15;;;;;;;16.52;59.33;98003.19;4898235;28;20268;-75
2022/08/06 04:45:23;;;;;;;1.92;1.83;;;;;;;16.41;59.85;97999.78;4913330;28;20340;-75
2022/08/06 04:47:49;;;;;;;3.70;1.80;;;;;;;16.41;59.47;97999.78;4929633;28;20151;-75
2022/08/06 04:50:14;;;;;;;2.47;2.25;;;;;;;16.46;59.37;98002.41;4913764;28;20658;-74
2022/08/06 04:52:40;;;;;;;2.30;1.95;;;;;;;16.44;59.19;98007.16;4898187;28;20203;-75
2022/08/06 04:55:06;;;;;;;2.58;1.77;;;;;;;16.49;59.05;98012.41;4930531;28;20269;-75
2022/08/06 04:57:32;;;;;;;3.35;2.45;;;;;;;16.48;59.01;98011.63;4914057;28;20630;-75
2022/08/06 04:59:57;;;;;;;2.30;1.83;;;;;;;16.57;59.04;98013.72;4927965;28;20212;-75
2022/08/06 05:02:23;;;;;;;2.22;2.03;;;;;;;16.64;58.78;98022.94;4928700;28;20170;-75
2022/08/06 05:04:55;;;;;;;2.17;1.63;;;;;;;16.67;58.82;98019.78;4912921;28;20283;-74
2022/08/06 05:07:23;;;;;;;2.30;1.80;;;;;;;16.73;58.69;98022.41;4930068;28;20250;-75
2022/08/06 05:09:50;;;;;;;2.35;1.80;;;;;;;16.89;58.39;98021.38;4895689;28;20705;-75
2022/08/06 05:12:37;;;;;;;2.30;1.88;;;;;;;16.78;58.34;98025.03;4928609;28;20275;-74
2022/08/06 05:15:26;;;;;;;2.60;1.70;;;;;;;16.78;58.28;98032.94;4929149;28;20671;-75
2022/08/06 05:17:57;;;;;;;2.20;1.80;;;;;;;16.88;57.83;98040.84;4928090;28;20259;-74
2022/08/06 05:20:23;;;;;;;2.45;1.77;;;;;;;17.04;57.29;98039.78;4929044;28;20236;-75
2022/08/06 05:22:52;;;;;;;5.38;1.80;;;;;;;16.94;56.97;98044.25;4945470;28;20159;-74
2022/08/06 05:25:18;;;;;;;3.00;1.70;;;;;;;17.14;57.15;98038.22;4928418;28;20655;-75
2022/08/06 05:27:48;;;;;;;1.58;1.40;;;;;;;17.22;56.74;98040.28;4912298;28;20283;-75
2022/08/06 05:30:13;;;;;;;1.88;1.45;;;;;;;17.28;56.30;98036.59;4912491;28;20110;-74
2022/08/06 05:32:47;;;;;;;1.42;1.20;;;;;;;17.23;56.56;98041.88;4928918;28;20338;-75
2022/08/06 05:35:13;;;;;;;3.70;1.60;;;;;;;17.36;56.48;98048.44;4912851;28;20708;-75
2022/08/06 05:37:39;;;;;;;1.98;1.70;;;;;;;17.31;55.80;98043.19;4927817;28;20275;-75
2022/08/06 05:40:06;;;;;;;1.50;1.40;;;;;;;17.34;56.29;98043.44;4912169;28;20253;-75
2022/08/06 05:42:31;;;;;;;1.92;1.15;;;;;;;17.41;56.21;98046.56;4912499;28;20316;-74
2022/08/06 05:44:57;;;;;;;2.28;1.77;;;;;;;17.42;56.10;98053.41;4900610;28;20265;-75
2022/08/06 05:47:27;;;;;;;1.70;1.50;;;;;;;17.28;56.38;98062.13;4878290;28;20687;-74
2022/08/06 05:49:58;;;;;;;2.25;1.70;;;;;;;17.37;56.33;98063.16;4896500;28;20415;-75
2022/08/06 05:52:26;;;;;;;1.73;1.58;;;;;;;17.40;54.97;98052.88;4929368;28;20268;-75
2022/08/06 05:55:00;;;;;;;1.85;1.30;;;;;;;17.33;55.19;98057.63;4912941;28;20261;-75
2022/08/06 05:57:28;;;;;;;1.95;1.25;;;;;;;17.53;55.35;98058.63;4911698;28;20710;-75
2022/08/06 05:59:58;;;;;;;2.33;1.48;;;;;;;17.35;55.30;98060.00;4928759;28;20264;-75
2022/08/06 06:02:23;;;;;;;2.47;1.55;;;;;;;17.46;54.86;98058.94;4928848;28;20368;-74
2022/08/06 06:04:49;;;;;;;1.77;1.33;;;;;;;17.42;55.51;98056.03;4896686;28;20245;-74
2022/08/06 06:07:15;;;;;;;2.13;1.30;;;;;;;17.50;55.36;98059.97;4892915;28;20620;-75
2022/08/06 06:09:42;;;;;;;2.83;1.40;;;;;;;17.61;54.80;98063.34;4912498;28;20701;-75
2022/08/06 06:12:09;;;;;;;1.27;0.90;;;;;;;17.83;54.01;98070.16;4928944;28;20347;-75
2022/08/06 06:14:37;;;;;;;1.85;1.45;;;;;;;17.84;53.50;98061.97;4896287;28;20203;-75
2022/08/06 06:17:35;;;;;;;2.92;1.38;;;;;;;17.64;54.19;98069.94;4897046;28;20136;-75
2022/08/06 06:20:05;;;;;;;1.17;1.08;;;;;;;17.70;54.24;98074.94;4924150;28;20823;-75
2022/08/06 06:22:35;;;;;;;1.88;1.20;;;;;;;17.76;53.96;98071.22;4912461;28;20216;-75
2022/08/06 06:26:00;;;;;;;1.40;1.30;;;;;;;17.69;53.83;98078.63;4896372;28;20216;-75
2022/08/06 06:28:28;;;;;;;2.00;1.20;;;;;;;17.73;53.51;98090.19;4894867;28;20335;-75
2022/08/06 06:30:58;;;;;;;2.03;1.30;;;;;;;17.65;53.69;98080.22;4940587;28;20273;-75
2022/08/06 06:33:48;;;;;;;2.15;0.65;;;;;;;17.98;53.05;98093.84;4909518;28;20210;-75
2022/08/06 06:36:49;;;;;;;1.17;0.80;;;;;;;18.11;53.35;98072.16;4946501;28;20174;-75
2022/08/06 06:39:25;;;;;;;1.45;1.10;;;;;;;18.27;51.96;98085.28;4898174;28;20371;-75
2022/08/06 06:42:00;;;;;;;3.20;1.17;;;;;;;18.35;51.51;98079.41;4893101;28;20202;-75
2022/08/06 06:44:39;;;;;;;2.03;1.00;;;;;;;18.66;50.10;98081.84;4908942;28;20182;-74
2022/08/06 06:47:26;;;;;;;1.27;0.80;;;;;;;18.72;49.76;98075.50;4893014;28;20790;-75
2022/08/06 06:49:54;;;;;;;0.98;0.77;;;;;;;19.01;49.17;98077.41;4908499;28;20609;-74
2022/08/06 06:52:41;;;;;;;2.13;1.50;;;;;;;18.92;49.17;98085.16;4908978;28;20361;-75
2022/08/06 06:55:29;;;;;;;0.95;0.70;;;;;;;19.21;48.93;98082.53;4877199;28;20173;-75
2022/08/06 06:58:02;;;;;;;1.95;0.70;;;;;;;19.41;48.69;98078.09;4883339;28;20265;-75
2022/08/06 07:00:27;;;;;;;1.83;0.80;;;;;;;19.57;47.98;98082.19;4927914;28;20631;-74
2022/08/06 07:02:54;;;;;;;1.17;0.80;;;;;;;19.85;47.60;98085.06;4895275;28;20208;-75
2022/08/06 07:05:20;;;;;;;1.13;0.80;;;;;;;20.32;46.93;98087.91;4927993;28;20236;-75
2022/08/06 07:07:46;;;;;;;2.03;1.00;;;;;;;20.23;46.16;98085.13;4926837;28;20275;-75
2022/08/06 07:10:13;;;;;;;1.73;0.80;;;;;;;20.52;46.20;98090.28;4927796;28;20297;-75
2022/08/06 07:12:40;;;;;;;2.30;1.10;;;;;;;20.84;45.83;98085.34;4911889;28;20672;-75
2022/08/06 07:15:07;;;;;;;2.58;0.90;;;;;;;21.23;45.08;98082.31;4911982;28;20201;-74
2022/08/06 07:17:34;;;;;;;3.17;0.90;;;;;;;21.39;44.41;98090.78;4910544;28;20240;-74
2022/08/06 07:20:03;;;;;;;1.40;0.73;;;;;;;21.53;44.21;98092.69;4911503;28;20206;-75
2022/08/06 07:22:29;;;;;;;1.00;0.90;;;;;;;21.11;43.76;98087.28;4927787;28;20362;-75
2022/08/06 07:24:58;;;;;;;1.95;0.90;;;;;;;20.66;44.73;98095.66;4912433;28;20193;-75
2022/08/06 07:27:27;;;;;;;1.27;0.70;;;;;;;20.81;44.65;98088.56;4930818;28;20101;-75
2022/08/06 07:29:53;;;;;;;0.70;0.63;;;;;;;21.32;44.25;98090.38;4915556;28;20638;-76
2022/08/06 07:32:18;;;;;;;0.82;0.55;;;;;;;21.77;43.31;98090.63;4915571;28;20162;-75
2022/08/06 07:34:44;;;;;;;1.60;0.75;;;;;;;22.06;42.77;98095.63;4932007;28;20239;-75
2022/08/06 07:37:10;;;;;;;1.23;0.90;;;;;;;22.07;42.34;98099.84;4914510;28;20192;-74
2022/08/06 07:39:38;;;;;;;1.65;0.70;;;;;;;21.75;41.96;98106.06;4939263;28;20174;-75
2022/08/06 07:42:08;;;;;;;2.40;0.60;;;;;;;21.94;41.74;98110.47;4931559;28;20286;-74
2022/08/06 07:44:38;;;;;;;1.42;0.60;;;;;;;21.74;41.24;98106.34;4906889;28;20675;-75
2022/08/06 07:47:03;;;;;;;2.17;1.00;;;;;;;21.62;42.68;98110.25;4895675;28;20659;-75
2022/08/06 07:49:43;;;;;;;1.88;0.70;;;;;;;21.68;42.54;98105.66;4929985;28;20362;-75
2022/08/06 07:52:12;;;;;;;2.58;0.88;;;;;;;22.28;41.73;98110.06;4917570;28;20272;-75
2022/08/06 07:54:38;;;;;;;1.58;0.57;;;;;;;22.57;40.21;98099.09;4950989;28;20302;-74
2022/08/06 07:57:05;;;;;;;1.48;0.80;;;;;;;22.60;40.80;98105.66;4932901;28;20170;-76
2022/08/06 07:59:31;;;;;;;2.83;0.60;;;;;;;22.70;40.51;98105.41;4914279;28;20399;-75
2022/08/06 08:01:58;;;;;;;2.28;0.63;;;;;;;22.86;39.12;98107.72;4935625;28;20272;-75
2022/08/06 08:07:12;;;;;;;1.95;1.10;;;;;;;22.62;38.81;98114.91;4914551;28;20713;-75
2022/08/06 08:09:38;;;;;;;3.50;0.93;;;;;;;22.88;39.89;98103.69;4928399;28;20261;-75
2022/08/06 08:12:06;;;;;;;0.98;0.80;;;;;;;23.28;38.76;98106.44;4930759;28;20311;-75
2022/08/06 08:14:31;;;;;;;1.00;0.70;;;;;;;22.68;37.92;98096.97;4915098;28;20194;-75
2022/08/06 08:16:57;;;;;;;1.02;0.70;;;;;;;22.52;38.23;98111.69;4918353;28;20289;-74
2022/08/06 08:19:31;;;;;;;0.98;0.88;;;;;;;22.71;37.60;98099.03;4919821;28;20268;-75
2022/08/06 08:22:17;;;;;;;1.33;0.80;;;;;;;23.14;37.01;98098.56;4895935;28;20299;-75
2022/08/06 08:24:46;;;;;;;1.98;1.02;;;;;;;23.60;36.04;98109.13;4946568;28;20250;-75
2022/08/06 08:27:12;;;;;;;1.33;0.80;;;;;;;22.93;35.98;98106.22;4912910;28;20242;-75
2022/08/06 08:29:38;;;;;;;1.95;0.98;;;;;;;23.00;36.14;98108.44;4946105;28;20276;-75
2022/08/06 08:32:05;;;;;;;1.20;1.00;;;;;;;23.06;36.59;98103.81;4913802;28;20276;-75
2022/08/06 08:34:31;;;;;;;10.18;1.58;;;;;;;23.18;36.05;98104.03;4946671;28;20269;-74
2022/08/06 08:36:56;;;;;;;1.40;0.80;;;;;;;23.67;35.83;98096.94;4928621;28;20358;-75
2022/08/06 08:39:21;;;;;;;2.55;0.70;;;;;;;23.74;35.90;98099.91;4927941;28;20166;-75
2022/08/06 08:42:06;;;;;;;1.90;0.80;;;;;;;23.61;35.66;98098.16;4947455;28;20252;-75
2022/08/06 08:44:32;;;;;;;1.63;0.68;;;;;;;24.05;34.82;98100.97;4925978;28;20332;-76
2022/08/06 08:46:59;;;;;;;0.80;0.60;;;;;;;23.82;35.52;98100.28;4907078;28;20216;-75
2022/08/06 08:49:46;;;;;;;1.58;0.88;;;;;;;24.02;34.91;98093.63;4941522;28;20238;-75
2022/08/06 08:52:17;;;;;;;2.55;0.80;;;;;;;24.57;34.77;98092.28;4929353;28;20189;-75
2022/08/06 08:54:55;;;;;;;1.40;1.00;;;;;;;24.22;33.91;98089.59;4928845;28;20174;-75
2022/08/06 08:57:22;;;;;;;0.85;0.80;;;;;;;24.24;34.25;98098.03;4913802;28;20108;-75
2022/08/06 08:59:48;;;;;;;2.50;0.85;;;;;;;24.02;34.86;98098.94;4928635;28;20201;-75
2022/08/06 09:02:13;;;;;;;0.80;0.77;;;;;;;24.98;33.97;98099.00;4930634;28;20205;-75
2022/08/06 09:04:39;;;;;;;2.30;0.93;;;;;;;24.95;33.15;98095.09;4929922;28;20738;-75
2022/08/06 09:07:05;;;;;;;2.92;1.10;;;;;;;24.99;33.43;98097.91;4912588;28;20325;-75
2022/08/06 09:09:32;;;;;;;1.80;0.85;;;;;;;25.02;33.33;98099.94;4933848;28;20304;-75
2022/08/06 09:11:59;;;;;;;3.45;1.55;;;;;;;24.59;33.31;98108.72;4910111;28;20328;-75
2022/08/06 09:14:24;;;;;;;1.08;0.80;;;;;;;24.35;33.64;98109.16;4935766;28;20189;-75
2022/08/06 09:16:50;;;;;;;1.45;1.00;;;;;;;23.96;34.27;98111.59;4936799;28;20178;-75
2022/08/06 09:19:15;;;;;;;1.67;0.80;;;;;;;23.81;34.95;98114.66;4938639;28;20208;-75
2022/08/06 09:21:41;;;;;;;1.52;0.82;;;;;;;23.09;34.73;98119.16;4916818;28;20590;-75
2022/08/06 09:24:06;;;;;;;2.47;1.42;;;;;;;22.55;36.06;98122.50;4947323;28;20229;-75
2022/08/06 09:26:33;;;;;;;1.83;0.80;;;;;;;22.84;35.74;98121.28;4911328;28;20297;-74
2022/08/06 09:28:59;;;;;;;1.10;0.70;;;;;;;23.46;34.53;98117.16;4942687;28;20235;-75
2022/08/06 09:31:24;;;;;;;2.17;0.88;;;;;;;24.33;34.23;98106.81;4933047;28;20652;-74
2022/08/06 09:34:05;;;;;;;2.08;1.10;;;;;;;24.32;32.44;98113.25;4911865;28;20252;-75
2022/08/06 09:36:41;;;;;;;2.08;1.05;;;;;;;24.67;31.84;98111.38;4928740;28;20548;-75
2022/08/06 09:39:07;;;;;;;2.42;0.98;;;;;;;24.70;32.80;98115.31;4925533;28;20271;-76
2022/08/06 09:41:34;;;;;;;1.92;1.15;;;;;;;25.13;31.55;98106.47;4931578;28;20182;-76
2022/08/06 09:44:09;;;;;;;2.10;0.90;;;;;;;25.26;31.22;98109.28;4891804;28;20288;-75
2022/08/06 09:46:35;;;;;;;;;;;;;;;24.97;31.66;98110.75;4909201;28;20201;-76
2022/08/06 09:49:02;;;;;;;1.20;0.90;;;;;;;24.60;32.10;98104.97;4939367;28;20208;-76
2022/08/06 09:51:28;;;;;;;1.45;1.20;;;;;;;25.01;32.50;98093.81;4938342;28;20298;-75
2022/08/06 09:53:58;;;;;;;2.13;0.88;;;;;;;25.01;32.06;98109.03;4945157;28;20337;-75
2022/08/06 09:56:25;;;;;;;2.92;0.98;;;;;;;25.16;31.75;98097.84;4941441;28;20186;-75
2022/08/06 09:58:57;;;;;;;2.33;0.70;;;;;;;24.91;31.89;98102.13;4927611;28;20248;-76
2022/08/06 10:01:23;;;;;;;1.60;0.85;;;;;;;25.38;31.35;98104.88;4925788;28;20193;-75
2022/08/06 10:03:50;;;;;;;2.10;1.17;;;;;;;25.59;30.60;98104.19;4912030;28;20175;-76
2022/08/06 10:06:20;;;;;;;1.52;0.93;;;;;;;26.02;30.15;98105.09;4928253;28;20139;-75
2022/08/06 10:08:47;;;;;;;2.38;1.13;;;;;;;26.18;29.88;98106.06;4912323;28;20272;-74
2022/08/06 10:11:13;;;;;;;2.50;0.77;;;;;;;25.88;29.65;98114.09;4926590;28;20231;-76
2022/08/06 10:13:39;;;;;;;1.27;0.90;;;;;;;25.95;29.92;98103.72;4911704;28;20196;-77
2022/08/06 10:16:18;;;;;;;1.20;0.70;;;;;;;26.14;29.45;98110.50;4912207;28;20196;-76
2022/08/06 10:18:48;;;;;;;0.88;0.70;;;;;;;26.36;29.16;98106.75;4926101;28;20256;-76
2022/08/06 10:21:17;;;;;;;2.90;1.00;;;;;;;26.82;29.04;98101.53;4908312;28;20256;-76
2022/08/06 10:23:46;;;;;;;1.30;1.20;;;;;;;27.05;27.26;98097.38;4895317;28;20496;-77
2022/08/06 10:26:13;;;;;;;0.80;0.60;;;;;;;26.96;28.24;98106.59;4911571;28;20077;-76
2022/08/06 10:28:41;;;;;;;1.00;0.60;;;;;;;27.09;27.97;98110.84;4926809;28;20329;-76
2022/08/06 10:31:09;;;;;;;1.60;0.90;;;;;;;26.50;27.52;98112.59;4911438;28;20129;-75
2022/08/06 10:33:43;;;;;;;1.30;0.70;;;;;;;26.66;26.96;98098.69;4912140;28;20228;-76
2022/08/06 10:36:11;;;;;;;2.20;0.75;;;;;;;26.68;27.69;98094.59;4927700;28;20687;-76
2022/08/06 10:38:38;;;;;;;4.32;1.23;;;;;;;26.08;29.13;98103.78;4911655;28;20666;-76
2022/08/06 10:41:08;;;;;;;2.60;1.00;;;;;;;25.88;29.34;98106.06;4910795;28;20189;-76
2022/08/06 10:43:36;;;;;;;1.67;0.73;;;;;;;26.20;28.68;98103.91;4911977;28;20239;-75
2022/08/06 10:46:07;;;;;;;2.38;0.95;;;;;;;26.66;28.39;98090.66;4950057;28;20646;-76
2022/08/06 10:48:35;;;;;;;0.70;0.70;;;;;;;27.12;28.10;98088.03;4909848;28;20253;-75
2022/08/06 10:51:02;;;;;;;1.63;0.50;;;;;;;27.42;26.81;98083.34;4926194;28;20709;-76
2022/08/06 10:53:30;;;;;;;1.60;0.80;;;;;;;27.73;26.95;98090.81;4928022;28;20604;-76
2022/08/06 10:55:56;;;;;;;1.45;0.73;;;;;;;26.98;26.90;98089.13;4910666;28;20363;-76
2022/08/06 10:58:22;;;;;;;2.28;0.70;;;;;;;26.40;28.09;98090.88;4932735;28;20176;-76
2022/08/06 11:00:48;;;;;;;1.50;0.70;;;;;;;26.44;28.08;98095.22;4915043;28;20284;-76
2022/08/06 11:03:19;;;;;;;1.30;0.80;;;;;;;26.84;27.30;98091.31;4908328;28;20221;-76
2022/08/06 11:05:50;;;;;;;1.38;0.80;;;;;;;26.80;26.43;98077.03;4934339;28;20219;-77
2022/08/06 11:08:58;;;;;;;0.80;0.80;;;;;;;27.05;26.97;98084.00;4934834;28;20189;-76
2022/08/06 11:11:25;;;;;;;0.45;0.45;;;;;;;27.83;25.53;98073.53;4933120;28;20266;-76
2022/08/06 11:14:00;;;;;;;2.45;0.82;;;;;;;27.61;25.73;98072.06;4918024;28;20192;-76
2022/08/06 11:16:27;;;;;;;1.05;0.70;;;;;;;27.96;25.41;98067.03;4909007;28;20316;-75
2022/08/06 11:19:00;;;;;;;0.60;0.60;;;;;;;27.39;26.05;98066.03;4925816;28;20583;-76
2022/08/06 11:21:40;;;;;;;1.83;0.80;;;;;;;27.28;25.63;98071.06;4893866;28;20271;-76
2022/08/06 11:24:06;;;;;;;1.52;0.90;;;;;;;27.14;25.80;98072.44;4944837;28;20201;-76
2022/08/06 11:26:34;;;;;;;0.90;0.82;;;;;;;27.28;25.83;98062.22;4926267;28;20273;-76
2022/08/06 11:29:00;;;;;;;0.93;0.70;;;;;;;27.24;26.22;98062.09;4942697;28;20178;-76
2022/08/06 11:31:31;;;;;;;0.73;0.70;;;;;;;27.34;25.88;98052.88;4926186;28;20220;-76
2022/08/06 11:34:01;;;;;;;3.40;0.60;;;;;;;26.91;26.40;98051.47;4910694;28;20200;-76
2022/08/06 11:36:27;;;;;;;1.23;0.85;;;;;;;26.76;26.57;98055.53;4926002;28;20220;-76
2022/08/06 11:38:53;;;;;;;1.02;0.73;;;;;;;26.27;27.05;98048.09;4927044;28;20158;-76
2022/08/06 11:41:22;;;;;;;1.30;0.43;;;;;;;26.02;27.34;98062.41;4944797;28;20200;-76
2022/08/06 11:43:51;;;;;;;1.00;0.60;;;;;;;25.67;26.87;98054.56;4908852;28;20200;-76
2022/08/06 11:46:21;;;;;;;1.30;0.40;;;;;;;25.95;26.56;98055.69;4937738;28;20932;-75